Time;durP1;ratioP1;P1;durP2;ratioP2;P2;SDS_P1;SDS_P2;PMS_P1;PMS_P2;Temp;Humidity;BMP_temperature;BMP_pressure;BME280_temperature;BME280_humidity;BME280_pressure;Samples;Min_cycle;Max_cycle;Signal;HPM_P1;HPM_P2
2021/12/16 00:08:41;;;;;;;41.63;21.98;;;;;;;;;;5042855;28;20481;-47
2021/12/16 00:19:23;;;;;;;37.35;19.85;;;;;;;;;;5038802;28;20069;-48
2021/12/16 00:33:35;;;;;;;32.80;18.52;;;;;;;;;;5040945;28;20087;-47
2021/12/16 00:36:04;;;;;;;28.02;18.05;;;;;;;;;;5046901;28;20045;-50
2021/12/16 00:38:30;;;;;;;25.05;17.13;;;;;;;;;;5031945;28;20046;-51
2021/12/16 00:40:59;;;;;;;31.77;17.65;;;;;;;;;;5031899;28;20108;-48
2021/12/16 00:43:41;;;;;;;28.92;18.02;;;;;;;;;;5037430;28;20047;-53
2021/12/16 00:54:14;;;;;;;28.52;16.85;;;;;;;;;;5104360;28;20404;-51
2021/12/16 00:56:43;;;;;;;27.30;16.98;;;;;;;;;;5103703;28;20476;-48
2021/12/16 00:59:12;;;;;;;25.52;16.35;;;;;;;;;;5102717;27;20032;-52
2021/12/16 01:01:52;;;;;;;30.58;17.42;;;;;;;;;;5098154;28;20028;-48
2021/12/16 01:05:03;;;;;;;24.67;16.63;;;;;;;;;;5098389;28;20426;-53
2021/12/16 01:51:14;;;;;;;26.33;16.48;;;;;;;;;;4996679;28;20049;-51
2021/12/16 01:58:58;;;;;;;28.42;16.80;;;;;;;;;;4997095;28;20052;-50
2021/12/16 02:01:32;;;;;;;29.42;17.45;;;;;;;;;;4975781;28;20038;-53
2021/12/16 02:04:09;;;;;;;26.40;16.95;;;;;;;;;;5009666;28;20793;-53
2021/12/16 02:06:48;;;;;;;28.27;16.85;;;;;;;;;;5012513;28;20072;-53
2021/12/16 02:09:36;;;;;;;27.63;16.90;;;;;;;;;;5011113;28;20038;-49
2021/12/16 02:12:15;;;;;;;26.90;15.93;;;;;;;;;;5014589;28;20102;-53
2021/12/16 02:28:50;;;;;;;24.75;16.35;;;;;;;;;;5098464;28;20036;-52
2021/12/16 02:31:33;;;;;;;25.45;16.85;;;;;;;;;;5095875;27;20717;-48
2021/12/16 02:36:37;;;;;;;26.40;17.05;;;;;;;;;;5097401;27;20385;-51
2021/12/16 02:39:12;;;;;;;26.02;17.30;;;;;;;;;;5098910;28;20069;-53
2021/12/16 02:41:41;;;;;;;30.52;19.70;;;;;;;;;;5104977;27;20051;-48
2021/12/16 02:44:28;;;;;;;31.77;20.85;;;;;;;;;;5101024;28;20373;-53
2021/12/16 02:49:44;;;;;;;31.17;18.65;;;;;;;;;;5094823;28;20031;-49
2021/12/16 02:52:11;;;;;;;29.77;18.77;;;;;;;;;;5097538;28;20477;-47
2021/12/16 02:54:38;;;;;;;26.13;17.98;;;;;;;;;;5098213;28;20028;-47
2021/12/16 02:57:05;;;;;;;28.08;18.70;;;;;;;;;;5094301;27;20499;-48
2021/12/16 02:59:32;;;;;;;29.33;18.27;;;;;;;;;;5099234;28;20031;-46
2021/12/16 03:02:07;;;;;;;31.98;17.65;;;;;;;;;;5101950;27;20024;-48
2021/12/16 03:04:34;;;;;;;32.13;18.35;;;;;;;;;;5107333;27;20031;-45
2021/12/16 03:07:02;;;;;;;30.02;18.75;;;;;;;;;;5091046;27;20032;-47
2021/12/16 03:10:37;;;;;;;29.65;17.67;;;;;;;;;;5094302;28;20043;-45
2021/12/16 03:15:22;;;;;;;27.17;16.13;;;;;;;;;;5098162;28;20506;-45
2021/12/16 03:20:28;;;;;;;23.60;14.30;;;;;;;;;;5098088;28;20097;-45
2021/12/16 03:23:10;;;;;;;26.02;15.23;;;;;;;;;;5100155;27;20106;-52
2021/12/16 03:25:57;;;;;;;23.63;14.73;;;;;;;;;;5103092;27;20402;-48
2021/12/16 03:36:50;;;;;;;26.02;16.02;;;;;;;;;;5099145;28;20031;-49
2021/12/16 03:39:17;;;;;;;30.33;16.92;;;;;;;;;;5100204;28;20295;-51
2021/12/16 03:41:44;;;;;;;28.45;16.40;;;;;;;;;;5095879;28;20101;-48
2021/12/16 03:44:18;;;;;;;24.38;16.50;;;;;;;;;;5100710;28;20080;-46
2021/12/16 03:46:48;;;;;;;23.42;15.35;;;;;;;;;;5095866;28;20028;-46
2021/12/16 03:49:18;;;;;;;24.98;16.33;;;;;;;;;;5095305;28;20482;-51
2021/12/16 03:51:52;;;;;;;26.42;16.48;;;;;;;;;;5101471;28;20031;-45
2021/12/16 03:54:25;;;;;;;26.00;15.60;;;;;;;;;;5100793;28;20040;-51
2021/12/16 03:56:54;;;;;;;25.27;16.30;;;;;;;;;;5104909;27;20042;-47
2021/12/16 03:59:23;;;;;;;19.08;14.57;;;;;;;;;;5109734;27;20428;-48
2021/12/16 04:01:50;;;;;;;21.23;15.25;;;;;;;;;;5104207;27;20070;-51
2021/12/16 04:04:16;;;;;;;23.35;15.05;;;;;;;;;;5114690;27;20036;-49
2021/12/16 04:06:42;;;;;;;25.98;16.05;;;;;;;;;;5105069;27;20384;-49
2021/12/16 04:09:12;;;;;;;23.20;16.13;;;;;;;;;;5104361;28;20241;-52
2021/12/16 04:11:42;;;;;;;25.67;15.48;;;;;;;;;;5092897;28;20024;-51
2021/12/16 04:14:12;;;;;;;23.80;15.90;;;;;;;;;;5101262;28;20089;-49
2021/12/16 04:16:48;;;;;;;22.10;15.73;;;;;;;;;;5103804;27;20054;-47
2021/12/16 04:19:18;;;;;;;21.05;15.13;;;;;;;;;;5107476;27;20507;-47
2021/12/16 04:21:48;;;;;;;20.77;14.43;;;;;;;;;;5100713;28;20391;-53
2021/12/16 04:24:14;;;;;;;22.73;15.48;;;;;;;;;;5111394;27;20035;-47
2021/12/16 04:26:45;;;;;;;25.25;15.50;;;;;;;;;;5104617;27;20451;-48
2021/12/16 04:29:12;;;;;;;23.90;15.68;;;;;;;;;;5102952;27;20035;-50
2021/12/16 04:31:38;;;;;;;25.60;15.80;;;;;;;;;;5101178;28;20357;-49
2021/12/16 04:34:07;;;;;;;24.75;15.68;;;;;;;;;;5105386;27;20404;-48
2021/12/16 04:36:35;;;;;;;23.77;14.43;;;;;;;;;;5100205;28;20590;-48
2021/12/16 04:39:04;;;;;;;22.42;14.88;;;;;;;;;;5106968;28;20035;-47
2021/12/16 04:41:30;;;;;;;21.33;15.35;;;;;;;;;;5100056;27;20028;-47
2021/12/16 04:43:56;;;;;;;24.75;17.00;;;;;;;;;;5103484;27;20036;-48
2021/12/16 04:46:26;;;;;;;24.05;16.08;;;;;;;;;;5109074;27;20073;-52
2021/12/16 04:48:55;;;;;;;26.13;16.52;;;;;;;;;;5094701;28;20042;-50
2021/12/16 04:51:23;;;;;;;27.90;15.88;;;;;;;;;;5104990;27;20515;-45
2021/12/16 04:53:50;;;;;;;31.60;16.25;;;;;;;;;;5099012;28;20395;-49
2021/12/16 04:56:17;;;;;;;24.95;15.68;;;;;;;;;;5103846;27;20035;-48
2021/12/16 04:58:46;;;;;;;20.60;15.10;;;;;;;;;;5103341;28;20035;-51
2021/12/16 05:01:12;;;;;;;24.70;15.90;;;;;;;;;;5087637;28;20032;-46
2021/12/16 05:03:38;;;;;;;26.85;16.55;;;;;;;;;;5103183;28;20042;-48
2021/12/16 05:06:05;;;;;;;25.00;13.98;;;;;;;;;;5102571;28;20070;-46
2021/12/16 05:08:31;;;;;;;30.90;15.25;;;;;;;;;;5094983;28;20036;-45
2021/12/16 05:11:01;;;;;;;23.67;15.73;;;;;;;;;;5102306;27;20473;-50
2021/12/16 05:13:28;;;;;;;26.52;16.52;;;;;;;;;;5080606;28;20032;-50
2021/12/16 05:15:56;;;;;;;38.15;18.00;;;;;;;;;;5099806;28;20039;-51
2021/12/16 05:18:31;;;;;;;24.40;16.35;;;;;;;;;;5096958;28;20032;-47
2021/12/16 05:20:59;;;;;;;33.35;16.35;;;;;;;;;;5095457;28;20024;-48
2021/12/16 05:28:41;;;;;;;42.53;19.40;;;;;;;;;;5103781;28;20024;-46
2021/12/16 05:31:08;;;;;;;32.83;17.35;;;;;;;;;;5099517;27;20024;-46
2021/12/16 05:33:34;;;;;;;28.52;17.25;;;;;;;;;;5100084;28;20737;-49
2021/12/16 05:36:01;;;;;;;29.77;18.00;;;;;;;;;;5100831;28;20028;-45
2021/12/16 05:38:29;;;;;;;28.00;18.02;;;;;;;;;;5111501;27;20024;-50
2021/12/16 05:40:56;;;;;;;29.25;17.48;;;;;;;;;;5094329;28;20109;-47
2021/12/16 05:43:24;;;;;;;26.42;17.13;;;;;;;;;;5099813;27;20055;-48
2021/12/16 05:45:52;;;;;;;31.70;17.10;;;;;;;;;;5100883;28;20074;-51
2021/12/16 05:48:23;;;;;;;23.13;16.17;;;;;;;;;;5095186;28;20023;-47
2021/12/16 05:50:53;;;;;;;27.67;17.65;;;;;;;;;;5083166;28;20032;-48
2021/12/16 05:53:20;;;;;;;24.85;17.35;;;;;;;;;;5098726;27;20028;-48
2021/12/16 05:55:46;;;;;;;28.27;16.35;;;;;;;;;;5098242;27;20027;-45
2021/12/16 05:58:18;;;;;;;30.50;17.02;;;;;;;;;;5099079;27;20028;-49
2021/12/16 06:00:50;;;;;;;27.48;16.58;;;;;;;;;;5100175;27;20089;-50
2021/12/16 06:03:16;;;;;;;27.42;17.45;;;;;;;;;;5095825;28;20032;-50
2021/12/16 06:05:43;;;;;;;23.83;15.95;;;;;;;;;;5088777;28;20512;-46
2021/12/16 06:08:10;;;;;;;23.55;16.65;;;;;;;;;;5098958;28;20373;-48
2021/12/16 06:13:07;;;;;;;25.13;16.23;;;;;;;;;;5095021;28;20059;-47
2021/12/16 06:26:41;;;;;;;24.25;16.70;;;;;;;;;;5028509;28;20053;-53
2021/12/16 06:29:08;;;;;;;28.52;14.85;;;;;;;;;;5028726;28;20127;-53
2021/12/16 06:31:34;;;;;;;20.38;14.10;;;;;;;;;;5030280;28;20071;-53
2021/12/16 06:33:59;;;;;;;28.35;18.25;;;;;;;;;;5025165;28;20073;-53
2021/12/16 06:36:26;;;;;;;24.17;15.68;;;;;;;;;;5027660;28;20512;-52
2021/12/16 06:38:51;;;;;;;23.48;14.93;;;;;;;;;;5026465;28;20076;-52
2021/12/16 06:41:18;;;;;;;23.00;15.20;;;;;;;;;;5029840;28;20053;-52
2021/12/16 06:43:45;;;;;;;23.42;16.13;;;;;;;;;;5030063;28;20056;-51
2021/12/16 06:46:15;;;;;;;26.50;15.50;;;;;;;;;;5027127;28;20037;-54
2021/12/16 06:48:44;;;;;;;21.42;14.98;;;;;;;;;;5023510;28;20095;-51
2021/12/16 06:51:19;;;;;;;26.63;16.02;;;;;;;;;;5025792;28;20407;-52
2021/12/16 06:53:51;;;;;;;20.42;14.55;;;;;;;;;;5029141;28;20536;-48
2021/12/16 06:56:25;;;;;;;26.75;16.27;;;;;;;;;;5029998;28;20033;-53
2021/12/16 06:59:04;;;;;;;35.67;17.30;;;;;;;;;;5024304;28;20041;-50
2021/12/16 07:04:05;;;;;;;21.23;15.40;;;;;;;;;;5094785;28;20019;-50
2021/12/16 07:06:32;;;;;;;21.58;14.48;;;;;;;;;;5099020;27;20063;-52
2021/12/16 07:09:09;;;;;;;20.50;14.32;;;;;;;;;;5094907;28;20032;-49
2021/12/16 07:11:41;;;;;;;22.55;14.57;;;;;;;;;;5093719;27;20042;-50
2021/12/16 07:14:16;;;;;;;22.58;15.52;;;;;;;;;;5077958;28;20036;-46
2021/12/16 07:16:46;;;;;;;43.13;24.33;;;;;;;;;;5100230;28;20059;-52
2021/12/16 07:19:12;;;;;;;26.38;16.48;;;;;;;;;;5097168;28;20046;-52
2021/12/16 07:21:39;;;;;;;25.33;16.08;;;;;;;;;;5094688;28;20110;-50
2021/12/16 07:24:10;;;;;;;27.10;17.33;;;;;;;;;;5094996;28;20038;-51
2021/12/16 07:26:37;;;;;;;28.30;18.23;;;;;;;;;;5098705;27;20451;-50
2021/12/16 07:29:05;;;;;;;34.92;21.60;;;;;;;;;;5114197;27;20081;-52
2021/12/16 07:31:33;;;;;;;47.40;25.83;;;;;;;;;;5091323;28;20035;-52
2021/12/16 07:33:59;;;;;;;45.20;26.60;;;;;;;;;;5095887;28;20036;-51
2021/12/16 07:36:27;;;;;;;38.72;24.63;;;;;;;;;;5093026;28;20026;-54
2021/12/16 07:38:53;;;;;;;40.83;21.10;;;;;;;;;;5094533;28;20060;-47
2021/12/16 07:41:24;;;;;;;36.85;19.52;;;;;;;;;;5096768;28;20036;-50
2021/12/16 07:44:09;;;;;;;33.13;21.10;;;;;;;;;;5096005;28;20114;-53
2021/12/16 07:46:45;;;;;;;45.95;25.45;;;;;;;;;;5114056;27;20032;-52
2021/12/16 07:49:15;;;;;;;45.75;26.50;;;;;;;;;;5099887;28;20035;-52
2021/12/16 07:51:42;;;;;;;34.78;22.30;;;;;;;;;;5103643;28;20031;-50
2021/12/16 07:54:10;;;;;;;45.17;22.95;;;;;;;;;;5095881;28;20027;-51
2021/12/16 07:56:37;;;;;;;42.85;22.42;;;;;;;;;;5098202;28;20063;-52
2021/12/16 07:59:04;;;;;;;34.78;21.95;;;;;;;;;;5099187;28;20072;-52
2021/12/16 08:01:29;;;;;;;50.45;22.65;;;;;;;;;;5096861;28;20084;-50
2021/12/16 08:03:55;;;;;;;36.75;20.90;;;;;;;;;;5097830;28;20049;-50
2021/12/16 08:06:26;;;;;;;36.78;21.45;;;;;;;;;;5095957;28;20047;-52
2021/12/16 08:08:57;;;;;;;31.27;19.45;;;;;;;;;;5095274;28;20027;-49
2021/12/16 08:11:26;;;;;;;26.67;17.17;;;;;;;;;;5088847;28;20123;-53
2021/12/16 08:13:52;;;;;;;30.02;16.38;;;;;;;;;;5099066;28;20048;-51
2021/12/16 08:16:22;;;;;;;26.02;16.65;;;;;;;;;;5100207;28;20024;-53
2021/12/16 08:18:52;;;;;;;25.25;15.77;;;;;;;;;;5104161;28;20024;-54
2021/12/16 08:21:20;;;;;;;28.95;16.05;;;;;;;;;;5098703;28;20069;-53
2021/12/16 08:23:47;;;;;;;31.50;18.50;;;;;;;;;;5079411;28;20416;-53
2021/12/16 08:26:15;;;;;;;28.75;17.63;;;;;;;;;;5096913;28;20048;-53
2021/12/16 08:28:44;;;;;;;30.73;18.33;;;;;;;;;;5104669;28;20023;-51
2021/12/16 08:31:11;;;;;;;31.52;19.98;;;;;;;;;;5100202;28;20076;-51
2021/12/16 08:33:38;;;;;;;33.67;20.70;;;;;;;;;;5096002;28;20024;-52
2021/12/16 08:36:07;;;;;;;41.53;22.67;;;;;;;;;;5093594;28;20020;-48
2021/12/16 08:38:34;;;;;;;36.17;22.65;;;;;;;;;;5099282;27;20569;-47
2021/12/16 08:41:13;;;;;;;34.35;23.60;;;;;;;;;;5107016;28;20023;-49
2021/12/16 08:43:41;;;;;;;37.45;23.88;;;;;;;;;;5095908;28;20039;-47
2021/12/16 08:46:12;;;;;;;34.70;25.52;;;;;;;;;;5099571;27;20038;-48
2021/12/16 08:48:40;;;;;;;34.65;23.88;;;;;;;;;;5100449;27;20027;-46
2021/12/16 08:51:07;;;;;;;39.80;23.85;;;;;;;;;;5096752;28;20071;-48
2021/12/16 08:53:33;;;;;;;37.05;23.63;;;;;;;;;;5111323;27;20035;-52
2021/12/16 08:55:59;;;;;;;31.92;23.00;;;;;;;;;;5100098;28;20035;-48
2021/12/16 08:58:26;;;;;;;32.70;23.33;;;;;;;;;;5088849;27;20043;-51
2021/12/16 09:00:59;;;;;;;41.00;23.95;;;;;;;;;;5095684;28;20111;-53
2021/12/16 09:03:27;;;;;;;39.45;23.02;;;;;;;;;;5105276;28;20447;-51
2021/12/16 09:05:53;;;;;;;32.55;22.75;;;;;;;;;;5094097;28;20055;-51
2021/12/16 09:08:19;;;;;;;37.15;21.77;;;;;;;;;;5104168;28;20027;-51
2021/12/16 09:10:45;;;;;;;30.55;21.08;;;;;;;;;;5097721;28;20032;-53
2021/12/16 09:13:14;;;;;;;27.13;20.60;;;;;;;;;;5094948;28;20499;-53
2021/12/16 09:15:48;;;;;;;32.63;21.45;;;;;;;;;;5094223;28;20063;-54
2021/12/16 09:18:15;;;;;;;31.85;20.92;;;;;;;;;;5100946;28;20035;-54
2021/12/16 09:20:41;;;;;;;36.15;21.58;;;;;;;;;;5103983;27;20032;-46
2021/12/16 09:23:09;;;;;;;29.80;20.90;;;;;;;;;;5102346;28;20353;-51
2021/12/16 09:25:38;;;;;;;35.85;21.83;;;;;;;;;;5077057;28;20138;-49
2021/12/16 09:28:04;;;;;;;38.10;25.55;;;;;;;;;;5094702;28;20036;-52
2021/12/16 09:30:34;;;;;;;40.55;22.83;;;;;;;;;;5095049;28;20024;-51
2021/12/16 09:33:02;;;;;;;47.83;23.83;;;;;;;;;;5093052;28;20034;-52
2021/12/16 09:35:32;;;;;;;32.65;23.35;;;;;;;;;;5106541;27;20027;-48
2021/12/16 09:38:02;;;;;;;38.08;25.30;;;;;;;;;;5100459;28;20385;-52
2021/12/16 09:40:30;;;;;;;40.58;24.95;;;;;;;;;;5113396;27;20020;-52
2021/12/16 09:42:57;;;;;;;34.50;24.40;;;;;;;;;;5111418;27;20432;-52
2021/12/16 09:45:23;;;;;;;32.78;23.67;;;;;;;;;;5097502;28;20066;-50
2021/12/16 09:47:50;;;;;;;46.75;26.33;;;;;;;;;;5097226;28;20035;-50
2021/12/16 09:50:23;;;;;;;40.15;26.98;;;;;;;;;;5098112;28;20089;-51
2021/12/16 09:52:49;;;;;;;49.80;26.40;;;;;;;;;;5097387;28;20481;-53
2021/12/16 09:55:14;;;;;;;40.03;25.80;;;;;;;;;;5103692;27;20038;-52
2021/12/16 09:57:40;;;;;;;37.42;24.67;;;;;;;;;;5098539;28;20140;-53
2021/12/16 10:00:10;;;;;;;42.15;27.48;;;;;;;;;;5094123;28;20030;-53
2021/12/16 10:02:39;;;;;;;38.47;22.70;;;;;;;;;;5100547;28;20047;-53
2021/12/16 10:05:09;;;;;;;45.03;23.45;;;;;;;;;;5099221;27;20024;-49
2021/12/16 10:07:35;;;;;;;35.70;22.05;;;;;;;;;;5082598;28;20107;-50
2021/12/16 10:10:06;;;;;;;39.88;23.08;;;;;;;;;;5096360;28;20118;-49
2021/12/16 10:12:38;;;;;;;30.25;21.65;;;;;;;;;;5084396;28;20536;-54
2021/12/16 10:17:22;;;;;;;34.65;21.20;;;;;;;;;;5107730;27;20040;-53
2021/12/16 10:17:53;;;;;;;37.97;23.05;;;;;;;;;;5100760;28;20455;-53
2021/12/16 10:20:23;;;;;;;38.15;22.60;;;;;;;;;;5095380;28;20030;-49
2021/12/16 10:22:51;;;;;;;33.28;21.90;;;;;;;;;;5102590;27;20063;-55
2021/12/16 10:25:40;;;;;;;34.17;23.05;;;;;;;;;;5093941;28;20052;-52
2021/12/16 10:28:09;;;;;;;34.63;23.77;;;;;;;;;;5095051;28;20040;-52
2021/12/16 10:30:43;;;;;;;34.55;24.65;;;;;;;;;;5094426;28;20071;-52
2021/12/16 10:33:21;;;;;;;34.25;23.42;;;;;;;;;;5086182;28;20078;-49
2021/12/16 10:35:49;;;;;;;39.15;25.33;;;;;;;;;;5096308;28;20028;-48
2021/12/16 10:38:18;;;;;;;41.60;25.83;;;;;;;;;;5103787;27;20368;-48
2021/12/16 10:40:49;;;;;;;34.80;25.88;;;;;;;;;;5099799;28;20024;-49
2021/12/16 10:43:25;;;;;;;51.92;25.92;;;;;;;;;;5105320;27;20379;-49
2021/12/16 10:46:12;;;;;;;39.50;27.25;;;;;;;;;;5093674;28;20047;-50
2021/12/16 10:48:50;;;;;;;36.20;24.92;;;;;;;;;;5099175;28;20488;-50
2021/12/16 10:51:36;;;;;;;42.65;25.77;;;;;;;;;;5101273;27;20030;-55
2021/12/16 10:54:13;;;;;;;46.53;25.88;;;;;;;;;;5102254;27;20024;-53
2021/12/16 10:56:44;;;;;;;43.88;27.30;;;;;;;;;;5081533;28;20035;-48
2021/12/16 10:59:21;;;;;;;44.23;29.17;;;;;;;;;;5099470;27;20511;-50
2021/12/16 11:02:00;;;;;;;58.60;27.45;;;;;;;;;;5099119;27;20065;-49
2021/12/16 11:04:34;;;;;;;49.72;27.15;;;;;;;;;;5091157;28;20049;-51
2021/12/16 11:07:17;;;;;;;50.10;26.90;;;;;;;;;;5103642;28;20031;-51
2021/12/16 11:09:51;;;;;;;56.95;27.95;;;;;;;;;;5096027;28;20718;-49
2021/12/16 11:12:28;;;;;;;45.88;26.15;;;;;;;;;;5083607;28;20031;-50
2021/12/16 11:15:02;;;;;;;45.25;27.20;;;;;;;;;;5098423;28;20036;-51
2021/12/16 11:17:34;;;;;;;45.65;27.15;;;;;;;;;;5098714;28;20032;-47
2021/12/16 11:20:09;;;;;;;37.78;25.95;;;;;;;;;;5094070;27;20765;-45
2021/12/16 11:22:37;;;;;;;42.30;25.60;;;;;;;;;;5095776;28;20143;-49
2021/12/16 11:25:13;;;;;;;43.28;27.23;;;;;;;;;;5101040;28;20519;-48
2021/12/16 11:27:39;;;;;;;41.05;26.05;;;;;;;;;;5098461;28;20035;-50
2021/12/16 11:30:28;;;;;;;42.10;26.65;;;;;;;;;;5103927;27;20019;-49
2021/12/16 11:33:04;;;;;;;35.13;24.83;;;;;;;;;;5094495;28;20024;-51
2021/12/16 11:35:55;;;;;;;36.35;26.55;;;;;;;;;;5094152;28;20429;-51
2021/12/16 11:38:30;;;;;;;35.30;22.77;;;;;;;;;;5082860;28;20035;-49
2021/12/16 11:41:01;;;;;;;40.67;24.85;;;;;;;;;;5097117;28;20036;-53
2021/12/16 11:43:53;;;;;;;43.15;23.55;;;;;;;;;;5097785;28;20028;-49
2021/12/16 11:46:42;;;;;;;37.22;24.75;;;;;;;;;;5098884;28;20116;-53
2021/12/16 11:49:08;;;;;;;42.60;23.85;;;;;;;;;;5097801;28;20019;-51
2021/12/16 11:51:39;;;;;;;34.10;22.55;;;;;;;;;;5097040;28;20049;-49
2021/12/16 11:54:23;;;;;;;38.00;24.48;;;;;;;;;;5093274;28;20027;-49
2021/12/16 11:56:57;;;;;;;36.70;22.98;;;;;;;;;;5096629;28;20020;-52
2021/12/16 11:59:28;;;;;;;34.67;23.67;;;;;;;;;;5101261;28;20114;-54
2021/12/16 12:01:55;;;;;;;38.15;23.42;;;;;;;;;;5098033;28;20036;-55
2021/12/16 12:04:29;;;;;;;37.25;23.13;;;;;;;;;;5100868;28;20027;-52
2021/12/16 12:06:55;;;;;;;32.28;22.20;;;;;;;;;;5081819;28;20032;-52
2021/12/16 12:09:33;;;;;;;36.25;22.65;;;;;;;;;;5098902;28;20042;-51
2021/12/16 12:12:00;;;;;;;35.40;23.38;;;;;;;;;;5097542;28;20901;-49
2021/12/16 12:14:35;;;;;;;48.53;23.48;;;;;;;;;;5095372;27;20030;-50
2021/12/16 12:17:17;;;;;;;51.42;25.27;;;;;;;;;;5097800;27;20036;-48
2021/12/16 12:19:47;;;;;;;41.40;23.48;;;;;;;;;;5097734;28;20032;-48
2021/12/16 12:22:13;;;;;;;34.10;23.70;;;;;;;;;;5102441;27;20056;-50
2021/12/16 12:24:45;;;;;;;38.90;22.45;;;;;;;;;;5095146;28;20602;-47
2021/12/16 12:27:26;;;;;;;37.25;21.33;;;;;;;;;;5109772;27;20396;-46
2021/12/16 12:29:54;;;;;;;35.20;21.77;;;;;;;;;;5093939;28;20048;-52
2021/12/16 12:32:27;;;;;;;34.72;21.15;;;;;;;;;;5098339;28;20083;-50
2021/12/16 12:34:57;;;;;;;32.03;19.77;;;;;;;;;;5098940;27;20077;-48
2021/12/16 12:37:25;;;;;;;28.45;19.77;;;;;;;;;;5100325;27;20034;-49
2021/12/16 12:39:58;;;;;;;33.10;21.35;;;;;;;;;;5102412;28;20035;-48
2021/12/16 12:42:24;;;;;;;35.05;19.92;;;;;;;;;;5104581;28;20119;-48
2021/12/16 12:44:51;;;;;;;35.33;20.15;;;;;;;;;;5106990;27;20081;-51
2021/12/16 12:47:22;;;;;;;34.47;20.40;;;;;;;;;;5101044;28;20081;-53
2021/12/16 12:49:48;;;;;;;33.33;20.58;;;;;;;;;;5099058;28;20511;-49
2021/12/16 12:52:22;;;;;;;31.98;19.70;;;;;;;;;;5104271;27;20032;-48
2021/12/16 12:55:09;;;;;;;34.38;20.05;;;;;;;;;;5097875;28;20042;-49
2021/12/16 12:57:36;;;;;;;31.50;20.40;;;;;;;;;;5088271;28;20491;-50
2021/12/16 13:00:08;;;;;;;36.90;21.42;;;;;;;;;;5095478;28;20037;-53
2021/12/16 13:02:39;;;;;;;30.45;19.67;;;;;;;;;;5102591;28;20028;-49
2021/12/16 13:05:10;;;;;;;29.65;21.13;;;;;;;;;;5101753;28;20429;-50
2021/12/16 13:07:43;;;;;;;42.70;21.83;;;;;;;;;;5095331;28;20778;-53
2021/12/16 13:10:21;;;;;;;36.13;21.23;;;;;;;;;;5096579;28;20031;-53
2021/12/16 13:12:59;;;;;;;42.75;22.85;;;;;;;;;;5102524;27;20036;-47
2021/12/16 13:23:31;;;;;;;43.92;19.27;;;;;;;;;;5101962;28;20030;-50
2021/12/16 13:28:44;;;;;;;31.40;19.90;;;;;;;;;;5101654;28;19969;-48
2021/12/16 13:31:29;;;;;;;29.63;19.50;;;;;;;;;;5101283;27;20026;-49
2021/12/16 13:33:57;;;;;;;33.95;19.45;;;;;;;;;;5097034;28;20028;-53
2021/12/16 13:36:48;;;;;;;23.42;16.67;;;;;;;;;;5104547;27;20051;-46
2021/12/16 13:39:20;;;;;;;27.63;17.42;;;;;;;;;;5104178;28;20028;-49
2021/12/16 13:42:05;;;;;;;28.17;18.20;;;;;;;;;;5096900;28;20039;-50
2021/12/16 13:44:45;;;;;;;25.33;16.95;;;;;;;;;;5103826;27;20044;-52
2021/12/16 13:47:43;;;;;;;24.92;16.60;;;;;;;;;;5105799;27;20028;-49
2021/12/16 14:02:05;;;;;;;27.67;14.43;;;;;;;;;;5097354;27;20487;-49
2021/12/16 14:10:09;;;;;;;27.30;14.68;;;;;;;;;;5101943;28;20500;-51
2021/12/16 14:15:43;;;;;;;22.27;13.50;;;;;;;;;;5093035;28;20477;-53
2021/12/16 14:22:58;;;;;;;24.95;14.27;;;;;;;;;;5095057;28;20445;-47
2021/12/16 14:24:27;;;;;;;24.73;14.32;;;;;;;;;;5103173;27;20035;-52
2021/12/16 14:27:06;;;;;;;25.98;13.93;;;;;;;;;;5094661;28;20113;-46
2021/12/16 14:33:54;;;;;;;28.25;15.18;;;;;;;;;;5098706;28;20043;-48
2021/12/16 14:36:02;;;;;;;21.73;15.10;;;;;;;;;;5086100;28;20036;-46
2021/12/16 14:38:14;;;;;;;22.88;14.27;;;;;;;;;;5085631;27;20044;-48
2021/12/16 14:43:41;;;;;;;24.75;13.65;;;;;;;;;;5095428;28;20039;-48
2021/12/16 14:46:10;;;;;;;22.92;14.57;;;;;;;;;;5097803;28;20031;-45
2021/12/16 14:48:36;;;;;;;23.67;14.77;;;;;;;;;;5093803;28;20038;-48
2021/12/16 14:51:11;;;;;;;21.58;14.07;;;;;;;;;;5093740;27;20035;-51
2021/12/16 14:53:50;;;;;;;20.45;13.05;;;;;;;;;;5089207;27;20043;-46
2021/12/16 14:56:36;;;;;;;19.70;14.27;;;;;;;;;;5091315;28;20040;-51
2021/12/16 14:59:14;;;;;;;23.92;15.05;;;;;;;;;;5096448;28;20477;-48
2021/12/16 15:01:44;;;;;;;21.65;15.15;;;;;;;;;;5096742;28;20073;-46
2021/12/16 15:04:15;;;;;;;26.70;14.88;;;;;;;;;;5099708;28;20119;-51
2021/12/16 15:07:05;;;;;;;21.42;13.95;;;;;;;;;;5082371;28;20030;-46
2021/12/16 15:09:35;;;;;;;17.10;12.05;;;;;;;;;;5100345;28;20445;-46
2021/12/16 15:15:27;;;;;;;25.30;14.40;;;;;;;;;;5024298;28;20029;-49
2021/12/16 15:37:35;;;;;;;38.03;24.27;;;;;;;;;;5018345;28;20080;-51
2021/12/16 15:42:54;;;;;;;30.50;20.60;;;;;;;;;;5025560;28;20106;-48
2021/12/16 15:45:34;;;;;;;37.97;21.55;;;;;;;;;;5023510;28;20796;-49
2021/12/16 15:48:10;;;;;;;32.53;21.90;;;;;;;;;;5025041;28;20120;-50
2021/12/16 15:50:58;;;;;;;34.60;23.95;;;;;;;;;;5094086;28;20081;-49
2021/12/16 15:53:29;;;;;;;40.88;21.85;;;;;;;;;;5104552;28;20028;-47
2021/12/16 15:56:06;;;;;;;36.75;23.10;;;;;;;;;;5098271;28;20032;-46
2021/12/16 15:58:36;;;;;;;49.45;31.25;;;;;;;;;;5093674;28;20032;-50
2021/12/16 16:01:08;;;;;;;52.13;31.13;;;;;;;;;;5093919;28;20061;-48
2021/12/16 16:03:36;;;;;;;74.25;46.45;;;;;;;;;;5105951;28;20058;-48
2021/12/16 16:06:07;;;;;;;67.43;44.10;;;;;;;;;;5102069;28;20028;-48
2021/12/16 16:08:38;;;;;;;46.20;29.40;;;;;;;;;;5092742;28;20060;-52
2021/12/16 16:11:10;;;;;;;39.13;25.92;;;;;;;;;;5079382;28;20061;-49
2021/12/16 16:13:48;;;;;;;33.45;24.25;;;;;;;;;;5096272;28;20059;-52
2021/12/16 16:16:16;;;;;;;36.42;22.60;;;;;;;;;;5097034;28;20028;-51
2021/12/16 16:18:54;;;;;;;35.33;22.17;;;;;;;;;;5092083;28;20431;-49
2021/12/16 16:21:42;;;;;;;35.30;22.38;;;;;;;;;;5082415;28;20024;-53
2021/12/16 16:24:17;;;;;;;39.30;24.33;;;;;;;;;;5091423;28;20032;-53
2021/12/16 16:26:44;;;;;;;44.58;24.40;;;;;;;;;;5094327;28;20044;-47
2021/12/16 16:29:14;;;;;;;23.80;15.23;;;;;;;;;;5099243;28;20150;-53
2021/12/16 16:31:42;;;;;;;25.17;16.27;;;;;;;;;;5096248;28;20122;-53
2021/12/16 16:34:23;;;;;;;36.60;17.50;;;;;;;;;;5093162;28;20043;-54
2021/12/16 16:36:52;;;;;;;40.63;22.60;;;;;;;;;;5095182;28;20040;-48
2021/12/16 16:39:24;;;;;;;39.90;22.73;;;;;;;;;;5093400;28;20028;-53
2021/12/16 16:41:54;;;;;;;58.55;28.45;;;;;;;;;;5097604;28;20387;-53
2021/12/16 16:44:22;;;;;;;44.58;25.00;;;;;;;;;;5080463;28;20027;-53
2021/12/16 16:47:17;;;;;;;49.60;27.08;;;;;;;;;;5095422;28;20028;-53
2021/12/16 16:49:53;;;;;;;42.72;26.75;;;;;;;;;;5097419;28;20044;-51
2021/12/16 16:52:35;;;;;;;32.90;19.58;;;;;;;;;;5098424;28;20160;-48
2021/12/16 16:55:23;;;;;;;27.83;18.10;;;;;;;;;;5098540;28;20358;-47
2021/12/16 16:57:54;;;;;;;20.73;15.45;;;;;;;;;;5094456;28;20036;-51
2021/12/16 17:00:39;;;;;;;13.80;9.00;;;;;;;;;;5092312;28;20031;-49
2021/12/16 17:03:14;;;;;;;12.48;8.20;;;;;;;;;;5104841;27;20020;-53
2021/12/16 17:05:57;;;;;;;16.27;10.60;;;;;;;;;;5107078;27;20058;-51
2021/12/16 17:08:27;;;;;;;22.52;15.60;;;;;;;;;;5095280;28;20106;-51
2021/12/16 17:11:01;;;;;;;19.20;14.32;;;;;;;;;;5111423;27;20040;-52
2021/12/16 17:13:57;;;;;;;20.08;14.80;;;;;;;;;;5095718;28;20396;-50
2021/12/16 17:19:15;;;;;;;22.80;16.35;;;;;;;;;;5102065;28;20024;-46
2021/12/16 17:21:47;;;;;;;22.33;16.63;;;;;;;;;;5096804;27;20047;-51
2021/12/16 17:24:17;;;;;;;20.38;13.65;;;;;;;;;;5105924;28;20115;-48
2021/12/16 17:26:51;;;;;;;12.68;9.65;;;;;;;;;;5099689;28;20499;-48
2021/12/16 17:29:38;;;;;;;13.20;8.75;;;;;;;;;;5094818;28;20051;-53
2021/12/16 17:32:14;;;;;;;11.70;8.48;;;;;;;;;;5095979;28;20105;-53
2021/12/16 17:34:42;;;;;;;12.43;8.05;;;;;;;;;;5106411;27;20396;-51
2021/12/16 17:37:26;;;;;;;12.85;8.73;;;;;;;;;;5098817;28;20062;-53
2021/12/16 17:39:59;;;;;;;13.25;9.10;;;;;;;;;;5096865;28;20044;-51
2021/12/16 17:42:39;;;;;;;13.68;9.30;;;;;;;;;;5097404;27;20531;-50
2021/12/16 17:45:10;;;;;;;15.70;9.45;;;;;;;;;;5101028;27;20707;-53
2021/12/16 17:47:37;;;;;;;25.77;11.05;;;;;;;;;;5095157;28;20110;-52
2021/12/16 17:50:05;;;;;;;14.85;10.48;;;;;;;;;;5107299;27;20671;-52
2021/12/16 17:52:34;;;;;;;14.93;11.00;;;;;;;;;;5099156;28;20722;-51
2021/12/16 17:55:25;;;;;;;14.77;10.80;;;;;;;;;;5095564;27;20055;-52
2021/12/16 17:57:56;;;;;;;17.05;10.90;;;;;;;;;;5100518;27;20039;-52
2021/12/16 18:00:31;;;;;;;16.60;10.52;;;;;;;;;;5096246;28;20622;-53
2021/12/16 18:02:59;;;;;;;16.05;10.52;;;;;;;;;;5097537;27;20665;-48
2021/12/16 18:05:28;;;;;;;16.08;10.35;;;;;;;;;;5114174;27;20122;-50
2021/12/16 18:07:55;;;;;;;17.58;10.60;;;;;;;;;;5097230;28;20548;-53
2021/12/16 18:10:24;;;;;;;15.05;11.32;;;;;;;;;;5098877;28;20486;-54
2021/12/16 18:12:50;;;;;;;17.60;10.63;;;;;;;;;;5085370;28;20036;-52
2021/12/16 18:15:20;;;;;;;16.02;10.68;;;;;;;;;;5098278;28;20024;-52